sensor_id;sensor_type;location;lat;lon;timestamp;P1;durP1;ratioP1;P2;durP2;ratioP2
75689;SDS011;64303;53.118;9.044;2024-01-06T00:00:31;9.95;;;9.05;;
75689;SDS011;64303;53.118;9.044;2024-01-06T00:03:18;10.13;;;9.13;;
75689;SDS011;64303;53.118;9.044;2024-01-06T00:05:44;9.75;;;8.85;;
75689;SDS011;64303;53.118;9.044;2024-01-06T00:08:11;13.32;;;11.95;;
75689;SDS011;64303;53.118;9.044;2024-01-06T00:10:37;9.02;;;8.23;;
75689;SDS011;64303;53.118;9.044;2024-01-06T00:13:06;10.30;;;9.40;;
75689;SDS011;64303;53.118;9.044;2024-01-06T00:15:32;12.50;;;11.43;;
75689;SDS011;64303;53.118;9.044;2024-01-06T00:17:59;9.73;;;8.18;;
75689;SDS011;64303;53.118;9.044;2024-01-06T00:20:25;11.68;;;10.60;;
75689;SDS011;64303;53.118;9.044;2024-01-06T00:22:52;9.85;;;8.85;;
75689;SDS011;64303;53.118;9.044;2024-01-06T00:25:19;10.38;;;9.48;;
75689;SDS011;64303;53.118;9.044;2024-01-06T00:27:45;19.83;;;18.50;;
75689;SDS011;64303;53.118;9.044;2024-01-06T00:30:13;11.90;;;10.82;;
75689;SDS011;64303;53.118;9.044;2024-01-06T00:32:40;12.77;;;11.65;;
75689;SDS011;64303;53.118;9.044;2024-01-06T00:35:07;9.18;;;8.23;;
75689;SDS011;64303;53.118;9.044;2024-01-06T00:37:34;10.45;;;9.45;;
75689;SDS011;64303;53.118;9.044;2024-01-06T00:40:00;9.13;;;8.30;;
75689;SDS011;64303;53.118;9.044;2024-01-06T00:42:28;9.15;;;8.32;;
75689;SDS011;64303;53.118;9.044;2024-01-06T00:44:54;11.35;;;10.25;;
75689;SDS011;64303;53.118;9.044;2024-01-06T00:47:22;11.68;;;9.77;;
75689;SDS011;64303;53.118;9.044;2024-01-06T00:49:49;10.75;;;9.75;;
75689;SDS011;64303;53.118;9.044;2024-01-06T00:52:16;8.93;;;7.32;;
75689;SDS011;64303;53.118;9.044;2024-01-06T00:54:43;13.25;;;12.27;;
75689;SDS011;64303;53.118;9.044;2024-01-06T00:57:09;10.27;;;9.38;;
75689;SDS011;64303;53.118;9.044;2024-01-06T00:59:36;10.38;;;9.52;;
75689;SDS011;64303;53.118;9.044;2024-01-06T01:02:03;8.88;;;7.97;;
75689;SDS011;64303;53.118;9.044;2024-01-06T01:04:31;9.25;;;8.40;;
75689;SDS011;64303;53.118;9.044;2024-01-06T01:06:57;9.07;;;8.20;;
75689;SDS011;64303;53.118;9.044;2024-01-06T01:09:24;8.38;;;7.05;;
75689;SDS011;64303;53.118;9.044;2024-01-06T01:11:51;9.38;;;8.63;;
75689;SDS011;64303;53.118;9.044;2024-01-06T01:14:17;12.18;;;11.05;;
75689;SDS011;64303;53.118;9.044;2024-01-06T01:16:44;8.80;;;8.00;;
75689;SDS011;64303;53.118;9.044;2024-01-06T01:19:11;10.43;;;9.43;;
75689;SDS011;64303;53.118;9.044;2024-01-06T01:21:39;12.15;;;11.30;;
75689;SDS011;64303;53.118;9.044;2024-01-06T01:24:06;10.07;;;9.10;;
75689;SDS011;64303;53.118;9.044;2024-01-06T01:26:32;10.20;;;9.30;;
75689;SDS011;64303;53.118;9.044;2024-01-06T01:28:59;9.88;;;8.77;;
75689;SDS011;64303;53.118;9.044;2024-01-06T01:31:26;11.27;;;9.52;;
75689;SDS011;64303;53.118;9.044;2024-01-06T01:33:53;9.45;;;8.57;;
75689;SDS011;64303;53.118;9.044;2024-01-06T01:36:19;10.90;;;9.82;;
75689;SDS011;64303;53.118;9.044;2024-01-06T01:38:48;9.00;;;8.07;;
75689;SDS011;64303;53.118;9.044;2024-01-06T01:41:15;9.15;;;8.32;;
75689;SDS011;64303;53.118;9.044;2024-01-06T01:43:41;11.27;;;10.23;;
75689;SDS011;64303;53.118;9.044;2024-01-06T01:46:08;9.20;;;8.30;;
75689;SDS011;64303;53.118;9.044;2024-01-06T01:48:35;9.00;;;7.80;;
75689;SDS011;64303;53.118;9.044;2024-01-06T01:51:01;9.25;;;8.45;;
75689;SDS011;64303;53.118;9.044;2024-01-06T01:53:28;10.85;;;9.85;;
75689;SDS011;64303;53.118;9.044;2024-01-06T01:55:57;10.25;;;9.07;;
75689;SDS011;64303;53.118;9.044;2024-01-06T01:58:24;10.88;;;9.77;;
75689;SDS011;64303;53.118;9.044;2024-01-06T02:00:51;7.78;;;6.88;;
75689;SDS011;64303;53.118;9.044;2024-01-06T02:03:17;12.30;;;9.73;;
75689;SDS011;64303;53.118;9.044;2024-01-06T02:05:44;9.23;;;8.43;;
75689;SDS011;64303;53.118;9.044;2024-01-06T02:08:11;10.48;;;9.43;;
75689;SDS011;64303;53.118;9.044;2024-01-06T02:10:38;9.73;;;8.82;;
75689;SDS011;64303;53.118;9.044;2024-01-06T02:13:09;11.80;;;10.65;;
75689;SDS011;64303;53.118;9.044;2024-01-06T02:15:36;13.60;;;12.50;;
75689;SDS011;64303;53.118;9.044;2024-01-06T02:18:03;12.02;;;10.02;;
75689;SDS011;64303;53.118;9.044;2024-01-06T02:20:30;10.15;;;9.15;;
75689;SDS011;64303;53.118;9.044;2024-01-06T02:22:59;10.73;;;8.65;;
75689;SDS011;64303;53.118;9.044;2024-01-06T02:25:26;9.98;;;9.10;;
75689;SDS011;64303;53.118;9.044;2024-01-06T02:27:53;13.65;;;12.43;;
75689;SDS011;64303;53.118;9.044;2024-01-06T02:30:19;10.02;;;9.02;;
75689;SDS011;64303;53.118;9.044;2024-01-06T02:32:46;11.93;;;10.55;;
75689;SDS011;64303;53.118;9.044;2024-01-06T02:35:13;9.18;;;8.48;;
75689;SDS011;64303;53.118;9.044;2024-01-06T02:37:39;12.52;;;11.27;;
75689;SDS011;64303;53.118;9.044;2024-01-06T02:40:08;9.25;;;8.20;;
75689;SDS011;64303;53.118;9.044;2024-01-06T02:42:36;9.18;;;8.18;;
75689;SDS011;64303;53.118;9.044;2024-01-06T02:45:03;10.50;;;9.60;;
75689;SDS011;64303;53.118;9.044;2024-01-06T02:47:30;9.80;;;8.98;;
75689;SDS011;64303;53.118;9.044;2024-01-06T02:49:57;10.55;;;8.40;;
75689;SDS011;64303;53.118;9.044;2024-01-06T02:52:23;8.98;;;8.10;;
75689;SDS011;64303;53.118;9.044;2024-01-06T02:54:50;10.13;;;8.77;;
75689;SDS011;64303;53.118;9.044;2024-01-06T02:57:18;11.00;;;10.05;;
75689;SDS011;64303;53.118;9.044;2024-01-06T02:59:45;9.68;;;8.77;;
75689;SDS011;64303;53.118;9.044;2024-01-06T03:02:11;11.65;;;10.38;;
75689;SDS011;64303;53.118;9.044;2024-01-06T03:04:38;8.82;;;8.23;;
75689;SDS011;64303;53.118;9.044;2024-01-06T03:07:05;15.75;;;14.38;;
75689;SDS011;64303;53.118;9.044;2024-01-06T03:09:31;10.63;;;9.32;;
75689;SDS011;64303;53.118;9.044;2024-01-06T03:11:58;10.00;;;9.13;;
75689;SDS011;64303;53.118;9.044;2024-01-06T03:14:26;10.70;;;9.80;;
75689;SDS011;64303;53.118;9.044;2024-01-06T03:16:53;8.32;;;7.53;;
75689;SDS011;64303;53.118;9.044;2024-01-06T03:19:21;8.00;;;7.30;;
75689;SDS011;64303;53.118;9.044;2024-01-06T03:21:51;9.10;;;8.30;;
75689;SDS011;64303;53.118;9.044;2024-01-06T03:24:18;7.68;;;7.15;;
75689;SDS011;64303;53.118;9.044;2024-01-06T03:26:45;9.40;;;8.60;;
75689;SDS011;64303;53.118;9.044;2024-01-06T03:29:13;9.88;;;8.98;;
75689;SDS011;64303;53.118;9.044;2024-01-06T03:31:43;8.82;;;8.18;;
75689;SDS011;64303;53.118;9.044;2024-01-06T03:34:10;12.77;;;11.68;;
75689;SDS011;64303;53.118;9.044;2024-01-06T03:36:37;8.02;;;7.15;;
75689;SDS011;64303;53.118;9.044;2024-01-06T03:39:04;11.23;;;9.40;;
75689;SDS011;64303;53.118;9.044;2024-01-06T03:41:32;9.77;;;8.80;;
75689;SDS011;64303;53.118;9.044;2024-01-06T03:43:59;9.80;;;8.95;;
75689;SDS011;64303;53.118;9.044;2024-01-06T03:46:26;8.70;;;8.10;;
75689;SDS011;64303;53.118;9.044;2024-01-06T03:48:55;10.27;;;8.57;;
75689;SDS011;64303;53.118;9.044;2024-01-06T03:51:22;7.85;;;7.32;;
75689;SDS011;64303;53.118;9.044;2024-01-06T03:53:49;9.80;;;8.95;;
75689;SDS011;64303;53.118;9.044;2024-01-06T03:56:16;9.30;;;8.50;;
75689;SDS011;64303;53.118;9.044;2024-01-06T03:58:44;13.50;;;12.30;;
75689;SDS011;64303;53.118;9.044;2024-01-06T04:01:11;10.63;;;9.55;;
75689;SDS011;64303;53.118;9.044;2024-01-06T04:03:38;9.90;;;9.10;;
75689;SDS011;64303;53.118;9.044;2024-01-06T04:06:07;17.23;;;15.95;;
75689;SDS011;64303;53.118;9.044;2024-01-06T04:08:33;8.00;;;7.35;;
75689;SDS011;64303;53.118;9.044;2024-01-06T04:11:01;10.73;;;9.77;;
75689;SDS011;64303;53.118;9.044;2024-01-06T04:13:28;10.45;;;9.60;;
75689;SDS011;64303;53.118;9.044;2024-01-06T04:15:54;7.93;;;7.20;;
75689;SDS011;64303;53.118;9.044;2024-01-06T04:18:21;10.75;;;9.90;;
75689;SDS011;64303;53.118;9.044;2024-01-06T04:20:47;9.63;;;8.93;;
75689;SDS011;64303;53.118;9.044;2024-01-06T04:23:16;13.20;;;12.20;;
75689;SDS011;64303;53.118;9.044;2024-01-06T04:25:42;9.13;;;8.38;;
75689;SDS011;64303;53.118;9.044;2024-01-06T04:28:09;13.23;;;12.13;;
75689;SDS011;64303;53.118;9.044;2024-01-06T04:30:35;9.95;;;7.95;;
75689;SDS011;64303;53.118;9.044;2024-01-06T04:33:02;10.43;;;9.63;;
75689;SDS011;64303;53.118;9.044;2024-01-06T04:35:29;10.85;;;10.15;;
75689;SDS011;64303;53.118;9.044;2024-01-06T04:37:56;7.53;;;6.97;;
75689;SDS011;64303;53.118;9.044;2024-01-06T04:40:24;8.70;;;7.80;;
75689;SDS011;64303;53.118;9.044;2024-01-06T04:42:51;11.75;;;10.85;;
75689;SDS011;64303;53.118;9.044;2024-01-06T04:45:17;10.82;;;9.93;;
75689;SDS011;64303;53.118;9.044;2024-01-06T04:47:45;14.57;;;13.40;;
75689;SDS011;64303;53.118;9.044;2024-01-06T04:50:11;13.10;;;12.20;;
75689;SDS011;64303;53.118;9.044;2024-01-06T04:52:38;11.52;;;10.65;;
75689;SDS011;64303;53.118;9.044;2024-01-06T04:55:04;8.82;;;7.97;;
75689;SDS011;64303;53.118;9.044;2024-01-06T04:57:33;9.15;;;8.18;;
75689;SDS011;64303;53.118;9.044;2024-01-06T04:59:59;10.23;;;9.35;;
75689;SDS011;64303;53.118;9.044;2024-01-06T05:02:26;9.77;;;8.88;;
75689;SDS011;64303;53.118;9.044;2024-01-06T05:04:53;10.07;;;9.10;;
75689;SDS011;64303;53.118;9.044;2024-01-06T05:07:20;11.35;;;10.27;;
75689;SDS011;64303;53.118;9.044;2024-01-06T05:09:46;12.35;;;11.25;;
75689;SDS011;64303;53.118;9.044;2024-01-06T05:12:13;11.48;;;10.20;;
75689;SDS011;64303;53.118;9.044;2024-01-06T05:14:41;11.95;;;10.88;;
75689;SDS011;64303;53.118;9.044;2024-01-06T05:17:08;8.98;;;8.18;;
75689;SDS011;64303;53.118;9.044;2024-01-06T05:19:34;8.60;;;7.85;;
75689;SDS011;64303;53.118;9.044;2024-01-06T05:22:02;10.75;;;9.75;;
75689;SDS011;64303;53.118;9.044;2024-01-06T05:24:28;9.68;;;8.77;;
75689;SDS011;64303;53.118;9.044;2024-01-06T05:26:55;9.32;;;8.32;;
75689;SDS011;64303;53.118;9.044;2024-01-06T05:29:22;8.93;;;8.20;;
75689;SDS011;64303;53.118;9.044;2024-01-06T05:31:52;9.38;;;8.48;;
75689;SDS011;64303;53.118;9.044;2024-01-06T05:34:19;9.40;;;8.25;;
75689;SDS011;64303;53.118;9.044;2024-01-06T05:36:46;9.98;;;9.05;;
75689;SDS011;64303;53.118;9.044;2024-01-06T05:39:12;9.98;;;9.18;;
75689;SDS011;64303;53.118;9.044;2024-01-06T05:41:39;10.63;;;9.63;;
75689;SDS011;64303;53.118;9.044;2024-01-06T05:44:06;10.85;;;9.75;;
75689;SDS011;64303;53.118;9.044;2024-01-06T05:46:33;9.70;;;8.90;;
75689;SDS011;64303;53.118;9.044;2024-01-06T05:49:01;11.73;;;10.52;;
75689;SDS011;64303;53.118;9.044;2024-01-06T05:51:28;10.70;;;9.70;;
75689;SDS011;64303;53.118;9.044;2024-01-06T05:53:54;9.13;;;8.15;;
75689;SDS011;64303;53.118;9.044;2024-01-06T05:56:22;10.25;;;9.38;;
75689;SDS011;64303;53.118;9.044;2024-01-06T05:58:49;14.60;;;13.48;;
75689;SDS011;64303;53.118;9.044;2024-01-06T06:01:16;9.68;;;8.82;;
75689;SDS011;64303;53.118;9.044;2024-01-06T06:03:42;9.18;;;7.70;;
75689;SDS011;64303;53.118;9.044;2024-01-06T06:06:11;12.60;;;10.38;;
75689;SDS011;64303;53.118;9.044;2024-01-06T06:08:37;9.52;;;8.68;;
75689;SDS011;64303;53.118;9.044;2024-01-06T06:11:05;15.10;;;13.95;;
75689;SDS011;64303;53.118;9.044;2024-01-06T06:13:36;10.55;;;9.50;;
75689;SDS011;64303;53.118;9.044;2024-01-06T06:16:04;11.50;;;10.38;;
75689;SDS011;64303;53.118;9.044;2024-01-06T06:18:31;10.75;;;9.63;;
75689;SDS011;64303;53.118;9.044;2024-01-06T06:20:59;10.68;;;9.57;;
75689;SDS011;64303;53.118;9.044;2024-01-06T06:23:27;10.93;;;9.98;;
75689;SDS011;64303;53.118;9.044;2024-01-06T06:25:55;8.13;;;7.57;;
75689;SDS011;64303;53.118;9.044;2024-01-06T06:28:24;15.70;;;14.30;;
75689;SDS011;64303;53.118;9.044;2024-01-06T06:30:52;9.90;;;7.85;;
75689;SDS011;64303;53.118;9.044;2024-01-06T06:33:19;13.40;;;11.00;;
75689;SDS011;64303;53.118;9.044;2024-01-06T06:35:46;10.20;;;9.25;;
75689;SDS011;64303;53.118;9.044;2024-01-06T06:38:14;9.98;;;9.07;;
75689;SDS011;64303;53.118;9.044;2024-01-06T06:40:42;10.07;;;9.02;;
75689;SDS011;64303;53.118;9.044;2024-01-06T06:43:09;11.27;;;10.20;;
75689;SDS011;64303;53.118;9.044;2024-01-06T06:45:36;10.27;;;9.35;;
75689;SDS011;64303;53.118;9.044;2024-01-06T06:48:04;12.00;;;10.93;;
75689;SDS011;64303;53.118;9.044;2024-01-06T06:50:32;15.00;;;13.75;;
75689;SDS011;64303;53.118;9.044;2024-01-06T06:55:27;9.07;;;8.27;;
75689;SDS011;64303;53.118;9.044;2024-01-06T06:57:56;9.73;;;8.93;;
75689;SDS011;64303;53.118;9.044;2024-01-06T07:00:22;10.20;;;9.18;;
75689;SDS011;64303;53.118;9.044;2024-01-06T07:02:49;11.55;;;9.73;;
75689;SDS011;64303;53.118;9.044;2024-01-06T07:05:16;9.60;;;7.70;;
75689;SDS011;64303;53.118;9.044;2024-01-06T07:07:43;9.40;;;8.48;;
75689;SDS011;64303;53.118;9.044;2024-01-06T07:10:11;11.93;;;10.80;;
75689;SDS011;64303;53.118;9.044;2024-01-06T07:12:39;10.80;;;9.30;;
75689;SDS011;64303;53.118;9.044;2024-01-06T07:15:07;11.40;;;10.50;;
75689;SDS011;64303;53.118;9.044;2024-01-06T07:17:35;11.70;;;10.55;;
75689;SDS011;64303;53.118;9.044;2024-01-06T07:20:03;11.10;;;10.00;;
75689;SDS011;64303;53.118;9.044;2024-01-06T07:22:32;11.73;;;10.73;;
75689;SDS011;64303;53.118;9.044;2024-01-06T07:24:59;11.20;;;10.25;;
75689;SDS011;64303;53.118;9.044;2024-01-06T07:27:26;11.90;;;10.93;;
75689;SDS011;64303;53.118;9.044;2024-01-06T07:29:54;16.35;;;14.90;;
75689;SDS011;64303;53.118;9.044;2024-01-06T07:32:23;11.15;;;10.07;;
75689;SDS011;64303;53.118;9.044;2024-01-06T07:34:49;11.45;;;10.48;;
75689;SDS011;64303;53.118;9.044;2024-01-06T07:37:16;12.02;;;10.82;;
75689;SDS011;64303;53.118;9.044;2024-01-06T07:39:43;11.00;;;9.80;;
75689;SDS011;64303;53.118;9.044;2024-01-06T07:42:10;10.88;;;9.05;;
75689;SDS011;64303;53.118;9.044;2024-01-06T07:44:37;11.18;;;9.63;;
75689;SDS011;64303;53.118;9.044;2024-01-06T07:47:05;10.82;;;9.82;;
75689;SDS011;64303;53.118;9.044;2024-01-06T07:49:33;14.15;;;10.95;;
75689;SDS011;64303;53.118;9.044;2024-01-06T07:52:00;11.10;;;10.25;;
75689;SDS011;64303;53.118;9.044;2024-01-06T07:54:27;11.05;;;10.18;;
75689;SDS011;64303;53.118;9.044;2024-01-06T07:56:54;10.52;;;9.63;;
75689;SDS011;64303;53.118;9.044;2024-01-06T07:59:20;12.10;;;10.65;;
75689;SDS011;64303;53.118;9.044;2024-01-06T08:01:47;11.57;;;10.50;;
75689;SDS011;64303;53.118;9.044;2024-01-06T08:04:14;11.57;;;10.45;;
75689;SDS011;64303;53.118;9.044;2024-01-06T08:06:42;12.75;;;11.48;;
75689;SDS011;64303;53.118;9.044;2024-01-06T08:09:08;12.93;;;11.48;;
75689;SDS011;64303;53.118;9.044;2024-01-06T08:11:35;11.32;;;10.15;;
75689;SDS011;64303;53.118;9.044;2024-01-06T08:14:02;13.65;;;12.25;;
75689;SDS011;64303;53.118;9.044;2024-01-06T08:16:28;9.75;;;8.93;;
75689;SDS011;64303;53.118;9.044;2024-01-06T08:18:55;9.45;;;8.55;;
75689;SDS011;64303;53.118;9.044;2024-01-06T08:21:22;12.90;;;10.95;;
75689;SDS011;64303;53.118;9.044;2024-01-06T08:23:50;11.20;;;10.27;;
75689;SDS011;64303;53.118;9.044;2024-01-06T08:26:16;14.50;;;12.80;;
75689;SDS011;64303;53.118;9.044;2024-01-06T08:28:43;17.25;;;15.45;;
75689;SDS011;64303;53.118;9.044;2024-01-06T08:31:10;12.32;;;10.85;;
75689;SDS011;64303;53.118;9.044;2024-01-06T08:33:36;16.48;;;14.63;;
75689;SDS011;64303;53.118;9.044;2024-01-06T08:36:03;12.23;;;10.93;;
75689;SDS011;64303;53.118;9.044;2024-01-06T08:38:30;17.65;;;10.48;;
75689;SDS011;64303;53.118;9.044;2024-01-06T08:40:58;16.52;;;14.70;;
75689;SDS011;64303;53.118;9.044;2024-01-06T08:43:25;15.15;;;13.52;;
75689;SDS011;64303;53.118;9.044;2024-01-06T08:45:52;17.95;;;16.08;;
75689;SDS011;64303;53.118;9.044;2024-01-06T08:48:18;18.73;;;14.15;;
75689;SDS011;64303;53.118;9.044;2024-01-06T08:50:45;17.15;;;13.20;;
75689;SDS011;64303;53.118;9.044;2024-01-06T08:53:12;17.35;;;13.73;;
75689;SDS011;64303;53.118;9.044;2024-01-06T08:55:39;15.13;;;13.57;;
75689;SDS011;64303;53.118;9.044;2024-01-06T08:58:07;15.80;;;12.65;;
75689;SDS011;64303;53.118;9.044;2024-01-06T09:00:34;13.63;;;11.57;;
75689;SDS011;64303;53.118;9.044;2024-01-06T09:03:01;16.92;;;11.60;;
75689;SDS011;64303;53.118;9.044;2024-01-06T09:05:28;15.90;;;13.40;;
75689;SDS011;64303;53.118;9.044;2024-01-06T09:07:56;18.65;;;13.38;;
75689;SDS011;64303;53.118;9.044;2024-01-06T09:10:23;17.52;;;15.82;;
75689;SDS011;64303;53.118;9.044;2024-01-06T09:12:50;16.38;;;11.20;;
75689;SDS011;64303;53.118;9.044;2024-01-06T09:15:18;17.83;;;13.65;;
75689;SDS011;64303;53.118;9.044;2024-01-06T09:17:45;12.80;;;11.57;;
75689;SDS011;64303;53.118;9.044;2024-01-06T09:20:14;14.68;;;11.70;;
75689;SDS011;64303;53.118;9.044;2024-01-06T09:25:09;18.08;;;16.25;;
75689;SDS011;64303;53.118;9.044;2024-01-06T09:27:38;11.45;;;9.88;;
75689;SDS011;64303;53.118;9.044;2024-01-06T09:30:06;15.43;;;11.77;;
75689;SDS011;64303;53.118;9.044;2024-01-06T09:32:35;15.07;;;11.25;;
75689;SDS011;64303;53.118;9.044;2024-01-06T09:39:56;16.55;;;15.02;;
75689;SDS011;64303;53.118;9.044;2024-01-06T09:42:24;16.70;;;13.95;;
75689;SDS011;64303;53.118;9.044;2024-01-06T09:44:52;12.90;;;11.23;;
75689;SDS011;64303;53.118;9.044;2024-01-06T09:47:19;17.38;;;13.88;;
75689;SDS011;64303;53.118;9.044;2024-01-06T09:49:50;13.15;;;11.95;;
75689;SDS011;64303;53.118;9.044;2024-01-06T09:52:19;13.88;;;11.60;;
75689;SDS011;64303;53.118;9.044;2024-01-06T09:54:50;21.30;;;19.42;;
75689;SDS011;64303;53.118;9.044;2024-01-06T09:57:18;13.48;;;12.07;;
75689;SDS011;64303;53.118;9.044;2024-01-06T09:59:46;13.27;;;11.98;;
75689;SDS011;64303;53.118;9.044;2024-01-06T10:02:14;14.68;;;13.15;;
75689;SDS011;64303;53.118;9.044;2024-01-06T10:04:41;13.63;;;12.07;;
75689;SDS011;64303;53.118;9.044;2024-01-06T10:07:09;16.15;;;14.32;;
75689;SDS011;64303;53.118;9.044;2024-01-06T10:09:38;17.33;;;14.43;;
75689;SDS011;64303;53.118;9.044;2024-01-06T10:12:05;14.75;;;13.23;;
75689;SDS011;64303;53.118;9.044;2024-01-06T10:14:32;14.00;;;12.25;;
75689;SDS011;64303;53.118;9.044;2024-01-06T10:16:59;17.77;;;16.23;;
75689;SDS011;64303;53.118;9.044;2024-01-06T10:19:26;14.60;;;13.00;;
75689;SDS011;64303;53.118;9.044;2024-01-06T10:21:52;17.83;;;14.68;;
75689;SDS011;64303;53.118;9.044;2024-01-06T10:24:21;16.83;;;12.60;;
75689;SDS011;64303;53.118;9.044;2024-01-06T10:26:47;15.18;;;12.90;;
75689;SDS011;64303;53.118;9.044;2024-01-06T10:29:14;17.38;;;14.20;;
75689;SDS011;64303;53.118;9.044;2024-01-06T10:31:41;16.05;;;13.77;;
75689;SDS011;64303;53.118;9.044;2024-01-06T10:34:08;14.65;;;12.82;;
75689;SDS011;64303;53.118;9.044;2024-01-06T10:36:35;18.05;;;13.80;;
75689;SDS011;64303;53.118;9.044;2024-01-06T10:39:02;18.33;;;16.38;;
75689;SDS011;64303;53.118;9.044;2024-01-06T10:41:30;17.73;;;13.15;;
75689;SDS011;64303;53.118;9.044;2024-01-06T10:43:57;19.63;;;17.75;;
75689;SDS011;64303;53.118;9.044;2024-01-06T10:46:26;18.40;;;14.52;;
75689;SDS011;64303;53.118;9.044;2024-01-06T10:48:55;18.27;;;14.65;;
75689;SDS011;64303;53.118;9.044;2024-01-06T10:51:22;19.85;;;14.00;;
75689;SDS011;64303;53.118;9.044;2024-01-06T10:53:49;17.48;;;14.88;;
75689;SDS011;64303;53.118;9.044;2024-01-06T10:56:16;18.30;;;14.52;;
75689;SDS011;64303;53.118;9.044;2024-01-06T10:58:45;15.45;;;12.07;;
75689;SDS011;64303;53.118;9.044;2024-01-06T11:01:13;17.45;;;12.88;;
75689;SDS011;64303;53.118;9.044;2024-01-06T11:03:40;17.40;;;14.73;;
75689;SDS011;64303;53.118;9.044;2024-01-06T11:06:08;16.90;;;13.65;;
75689;SDS011;64303;53.118;9.044;2024-01-06T11:08:40;18.08;;;14.25;;
75689;SDS011;64303;53.118;9.044;2024-01-06T11:11:16;18.52;;;15.70;;
75689;SDS011;64303;53.118;9.044;2024-01-06T11:13:44;15.43;;;12.70;;
75689;SDS011;64303;53.118;9.044;2024-01-06T11:16:12;21.13;;;14.65;;
75689;SDS011;64303;53.118;9.044;2024-01-06T11:19:02;17.52;;;15.52;;
75689;SDS011;64303;53.118;9.044;2024-01-06T11:21:33;22.20;;;15.00;;
75689;SDS011;64303;53.118;9.044;2024-01-06T11:24:15;17.90;;;14.65;;
75689;SDS011;64303;53.118;9.044;2024-01-06T11:26:49;16.23;;;14.63;;
75689;SDS011;64303;53.118;9.044;2024-01-06T11:29:18;20.85;;;15.95;;
75689;SDS011;64303;53.118;9.044;2024-01-06T11:34:46;18.10;;;14.55;;
75689;SDS011;64303;53.118;9.044;2024-01-06T11:37:14;19.08;;;14.57;;
75689;SDS011;64303;53.118;9.044;2024-01-06T11:39:43;18.52;;;15.88;;
75689;SDS011;64303;53.118;9.044;2024-01-06T11:42:10;19.50;;;17.45;;
75689;SDS011;64303;53.118;9.044;2024-01-06T11:44:38;19.98;;;16.13;;
75689;SDS011;64303;53.118;9.044;2024-01-06T11:47:06;18.75;;;13.88;;
75689;SDS011;64303;53.118;9.044;2024-01-06T11:49:33;19.77;;;17.90;;
75689;SDS011;64303;53.118;9.044;2024-01-06T11:52:00;17.20;;;14.25;;
75689;SDS011;64303;53.118;9.044;2024-01-06T11:54:26;17.45;;;13.77;;
75689;SDS011;64303;53.118;9.044;2024-01-06T11:56:53;21.58;;;14.23;;
75689;SDS011;64303;53.118;9.044;2024-01-06T11:59:23;16.10;;;13.93;;
75689;SDS011;64303;53.118;9.044;2024-01-06T12:01:51;17.75;;;12.32;;
75689;SDS011;64303;53.118;9.044;2024-01-06T12:06:47;17.20;;;13.15;;
75689;SDS011;64303;53.118;9.044;2024-01-06T12:09:16;20.92;;;15.13;;
75689;SDS011;64303;53.118;9.044;2024-01-06T12:12:07;18.02;;;16.25;;
75689;SDS011;64303;53.118;9.044;2024-01-06T12:14:35;24.88;;;22.50;;
75689;SDS011;64303;53.118;9.044;2024-01-06T12:17:03;21.08;;;14.25;;
75689;SDS011;64303;53.118;9.044;2024-01-06T12:19:31;19.10;;;13.95;;
75689;SDS011;64303;53.118;9.044;2024-01-06T12:21:58;20.08;;;15.82;;
75689;SDS011;64303;53.118;9.044;2024-01-06T12:24:27;14.13;;;12.70;;
75689;SDS011;64303;53.118;9.044;2024-01-06T12:26:55;16.25;;;14.70;;
75689;SDS011;64303;53.118;9.044;2024-01-06T12:29:24;18.65;;;16.80;;
75689;SDS011;64303;53.118;9.044;2024-01-06T12:31:53;16.00;;;13.68;;
75689;SDS011;64303;53.118;9.044;2024-01-06T12:34:22;18.08;;;13.88;;
75689;SDS011;64303;53.118;9.044;2024-01-06T12:36:50;17.80;;;14.43;;
75689;SDS011;64303;53.118;9.044;2024-01-06T12:39:19;16.42;;;14.15;;
75689;SDS011;64303;53.118;9.044;2024-01-06T12:41:46;17.02;;;13.32;;
75689;SDS011;64303;53.118;9.044;2024-01-06T12:44:14;16.92;;;15.25;;
75689;SDS011;64303;53.118;9.044;2024-01-06T12:46:41;16.17;;;13.95;;
75689;SDS011;64303;53.118;9.044;2024-01-06T12:49:09;17.38;;;13.77;;
75689;SDS011;64303;53.118;9.044;2024-01-06T12:51:38;17.00;;;14.15;;
75689;SDS011;64303;53.118;9.044;2024-01-06T12:54:06;12.77;;;10.88;;
75689;SDS011;64303;53.118;9.044;2024-01-06T12:56:34;18.08;;;16.27;;
75689;SDS011;64303;53.118;9.044;2024-01-06T12:59:02;14.75;;;12.32;;
75689;SDS011;64303;53.118;9.044;2024-01-06T13:01:29;15.60;;;13.50;;
75689;SDS011;64303;53.118;9.044;2024-01-06T13:03:56;14.55;;;12.48;;
75689;SDS011;64303;53.118;9.044;2024-01-06T13:06:26;15.52;;;13.60;;
75689;SDS011;64303;53.118;9.044;2024-01-06T13:08:54;17.25;;;13.27;;
75689;SDS011;64303;53.118;9.044;2024-01-06T13:11:21;13.90;;;12.05;;
75689;SDS011;64303;53.118;9.044;2024-01-06T13:13:50;13.85;;;12.35;;
75689;SDS011;64303;53.118;9.044;2024-01-06T13:16:16;17.42;;;13.32;;
75689;SDS011;64303;53.118;9.044;2024-01-06T13:18:44;15.05;;;13.43;;
75689;SDS011;64303;53.118;9.044;2024-01-06T13:21:11;16.02;;;13.88;;
75689;SDS011;64303;53.118;9.044;2024-01-06T13:23:39;20.77;;;15.68;;
75689;SDS011;64303;53.118;9.044;2024-01-06T13:26:07;12.18;;;10.93;;
75689;SDS011;64303;53.118;9.044;2024-01-06T13:28:35;15.48;;;13.38;;
75689;SDS011;64303;53.118;9.044;2024-01-06T13:31:02;12.60;;;10.95;;
75689;SDS011;64303;53.118;9.044;2024-01-06T13:33:29;19.38;;;17.40;;
75689;SDS011;64303;53.118;9.044;2024-01-06T13:35:56;17.23;;;15.48;;
75689;SDS011;64303;53.118;9.044;2024-01-06T13:38:23;18.42;;;13.27;;
75689;SDS011;64303;53.118;9.044;2024-01-06T13:40:51;17.30;;;12.38;;
75689;SDS011;64303;53.118;9.044;2024-01-06T13:43:19;14.90;;;13.52;;
75689;SDS011;64303;53.118;9.044;2024-01-06T13:45:46;21.33;;;14.75;;
75689;SDS011;64303;53.118;9.044;2024-01-06T13:48:13;17.10;;;15.45;;
75689;SDS011;64303;53.118;9.044;2024-01-06T13:50:41;15.23;;;13.73;;
75689;SDS011;64303;53.118;9.044;2024-01-06T13:53:08;16.38;;;13.65;;
75689;SDS011;64303;53.118;9.044;2024-01-06T13:55:35;14.77;;;13.32;;
75689;SDS011;64303;53.118;9.044;2024-01-06T13:58:02;20.83;;;18.85;;
75689;SDS011;64303;53.118;9.044;2024-01-06T14:00:30;15.80;;;14.20;;
75689;SDS011;64303;53.118;9.044;2024-01-06T14:02:57;17.50;;;16.15;;
75689;SDS011;64303;53.118;9.044;2024-01-06T14:05:24;12.82;;;11.52;;
75689;SDS011;64303;53.118;9.044;2024-01-06T14:07:51;16.38;;;12.80;;
75689;SDS011;64303;53.118;9.044;2024-01-06T14:10:18;16.20;;;14.05;;
75689;SDS011;64303;53.118;9.044;2024-01-06T14:12:45;11.88;;;11.13;;
75689;SDS011;64303;53.118;9.044;2024-01-06T14:15:11;13.13;;;11.68;;
75689;SDS011;64303;53.118;9.044;2024-01-06T14:17:40;14.30;;;11.65;;
75689;SDS011;64303;53.118;9.044;2024-01-06T14:20:07;16.67;;;14.93;;
75689;SDS011;64303;53.118;9.044;2024-01-06T14:22:38;15.32;;;14.07;;
75689;SDS011;64303;53.118;9.044;2024-01-06T14:25:05;17.30;;;15.05;;
75689;SDS011;64303;53.118;9.044;2024-01-06T14:27:33;15.15;;;13.55;;
75689;SDS011;64303;53.118;9.044;2024-01-06T14:29:59;16.27;;;14.60;;
75689;SDS011;64303;53.118;9.044;2024-01-06T14:32:26;18.27;;;11.57;;
75689;SDS011;64303;53.118;9.044;2024-01-06T14:34:55;16.90;;;13.65;;
75689;SDS011;64303;53.118;9.044;2024-01-06T14:37:22;12.90;;;11.57;;
75689;SDS011;64303;53.118;9.044;2024-01-06T14:39:49;13.82;;;11.77;;
75689;SDS011;64303;53.118;9.044;2024-01-06T14:42:15;20.23;;;12.25;;
75689;SDS011;64303;53.118;9.044;2024-01-06T14:44:44;14.35;;;11.18;;